sensor_id;sensor_type;location;lat;lon;timestamp;P1;durP1;ratioP1;P2;durP2;ratioP2
31284;SDS011;56605;51.516;6.742;2022-10-15T00:00:52;30.88;;;17.80;;
31284;SDS011;56605;51.516;6.742;2022-10-15T00:03:18;27.90;;;17.63;;
31284;SDS011;56605;51.516;6.742;2022-10-15T00:05:43;28.80;;;18.02;;
31284;SDS011;56605;51.516;6.742;2022-10-15T00:08:09;29.42;;;18.02;;
31284;SDS011;56605;51.516;6.742;2022-10-15T00:10:35;27.65;;;17.95;;
31284;SDS011;56605;51.516;6.742;2022-10-15T00:13:00;28.90;;;19.20;;
31284;SDS011;56605;51.516;6.742;2022-10-15T00:15:27;33.33;;;18.98;;
31284;SDS011;56605;51.516;6.742;2022-10-15T00:17:52;32.17;;;18.95;;
31284;SDS011;56605;51.516;6.742;2022-10-15T00:20:17;31.10;;;19.23;;
31284;SDS011;56605;51.516;6.742;2022-10-15T00:22:43;27.63;;;17.80;;
31284;SDS011;56605;51.516;6.742;2022-10-15T00:25:09;28.60;;;18.45;;
31284;SDS011;56605;51.516;6.742;2022-10-15T00:27:34;29.42;;;18.65;;
31284;SDS011;56605;51.516;6.742;2022-10-15T00:30:00;29.85;;;18.05;;
31284;SDS011;56605;51.516;6.742;2022-10-15T00:32:27;30.45;;;18.52;;
31284;SDS011;56605;51.516;6.742;2022-10-15T00:34:53;26.70;;;17.67;;
31284;SDS011;56605;51.516;6.742;2022-10-15T00:37:19;31.50;;;19.38;;
31284;SDS011;56605;51.516;6.742;2022-10-15T00:39:45;28.73;;;18.80;;
31284;SDS011;56605;51.516;6.742;2022-10-15T00:42:10;30.15;;;19.50;;
31284;SDS011;56605;51.516;6.742;2022-10-15T00:47:05;30.90;;;20.75;;
31284;SDS011;56605;51.516;6.742;2022-10-15T00:49:32;33.00;;;20.65;;
31284;SDS011;56605;51.516;6.742;2022-10-15T00:52:23;31.35;;;20.77;;
31284;SDS011;56605;51.516;6.742;2022-10-15T00:54:58;32.53;;;21.00;;
31284;SDS011;56605;51.516;6.742;2022-10-15T00:57:30;36.38;;;22.58;;
31284;SDS011;56605;51.516;6.742;2022-10-15T00:59:57;38.47;;;22.77;;
31284;SDS011;56605;51.516;6.742;2022-10-15T01:02:29;33.38;;;21.25;;
31284;SDS011;56605;51.516;6.742;2022-10-15T01:04:54;35.63;;;22.00;;
31284;SDS011;56605;51.516;6.742;2022-10-15T01:07:20;36.22;;;21.73;;
31284;SDS011;56605;51.516;6.742;2022-10-15T01:09:45;35.65;;;21.05;;
31284;SDS011;56605;51.516;6.742;2022-10-15T01:34:46;36.08;;;20.23;;
31284;SDS011;56605;51.516;6.742;2022-10-15T01:37:20;33.75;;;20.90;;
31284;SDS011;56605;51.516;6.742;2022-10-15T01:40:07;35.38;;;21.38;;
31284;SDS011;56605;51.516;6.742;2022-10-15T01:42:44;36.20;;;21.77;;
31284;SDS011;56605;51.516;6.742;2022-10-15T01:45:19;36.42;;;22.30;;
31284;SDS011;56605;51.516;6.742;2022-10-15T01:47:51;32.90;;;20.92;;
31284;SDS011;56605;51.516;6.742;2022-10-15T01:50:20;36.03;;;21.92;;
31284;SDS011;56605;51.516;6.742;2022-10-15T01:52:49;38.15;;;22.08;;
31284;SDS011;56605;51.516;6.742;2022-10-15T01:55:15;35.00;;;21.17;;
31284;SDS011;56605;51.516;6.742;2022-10-15T01:57:45;33.13;;;20.90;;
31284;SDS011;56605;51.516;6.742;2022-10-15T02:00:11;33.47;;;20.27;;
31284;SDS011;56605;51.516;6.742;2022-10-15T02:02:37;35.78;;;21.02;;
31284;SDS011;56605;51.516;6.742;2022-10-15T02:05:04;30.75;;;20.05;;
31284;SDS011;56605;51.516;6.742;2022-10-15T02:18:43;43.35;;;24.50;;
31284;SDS011;56605;51.516;6.742;2022-10-15T02:21:15;47.97;;;25.90;;
31284;SDS011;56605;51.516;6.742;2022-10-15T02:23:46;51.83;;;26.55;;
31284;SDS011;56605;51.516;6.742;2022-10-15T02:26:20;47.75;;;26.58;;
31284;SDS011;56605;51.516;6.742;2022-10-15T02:28:51;49.05;;;26.23;;
31284;SDS011;56605;51.516;6.742;2022-10-15T02:31:21;57.25;;;27.77;;
31284;SDS011;56605;51.516;6.742;2022-10-15T02:33:47;50.85;;;27.02;;
31284;SDS011;56605;51.516;6.742;2022-10-15T02:36:15;52.65;;;27.25;;
31284;SDS011;56605;51.516;6.742;2022-10-15T02:38:43;52.70;;;27.88;;
31284;SDS011;56605;51.516;6.742;2022-10-15T02:41:09;53.42;;;28.10;;
31284;SDS011;56605;51.516;6.742;2022-10-15T02:43:36;50.90;;;27.33;;
31284;SDS011;56605;51.516;6.742;2022-10-15T02:46:03;51.28;;;27.02;;
31284;SDS011;56605;51.516;6.742;2022-10-15T02:48:29;53.40;;;28.15;;
31284;SDS011;56605;51.516;6.742;2022-10-15T02:50:54;53.25;;;27.48;;
31284;SDS011;56605;51.516;6.742;2022-10-15T02:53:20;51.67;;;27.75;;
31284;SDS011;56605;51.516;6.742;2022-10-15T02:55:45;54.55;;;29.38;;
31284;SDS011;56605;51.516;6.742;2022-10-15T02:58:11;54.55;;;28.25;;
31284;SDS011;56605;51.516;6.742;2022-10-15T03:00:36;47.15;;;27.25;;
31284;SDS011;56605;51.516;6.742;2022-10-15T03:03:01;53.80;;;28.27;;
31284;SDS011;56605;51.516;6.742;2022-10-15T03:05:27;49.60;;;28.25;;
31284;SDS011;56605;51.516;6.742;2022-10-15T03:07:52;50.58;;;27.40;;
31284;SDS011;56605;51.516;6.742;2022-10-15T03:10:17;51.30;;;27.70;;
31284;SDS011;56605;51.516;6.742;2022-10-15T03:12:43;49.78;;;26.90;;
31284;SDS011;56605;51.516;6.742;2022-10-15T03:15:08;43.25;;;24.50;;
31284;SDS011;56605;51.516;6.742;2022-10-15T03:17:33;44.10;;;26.17;;
31284;SDS011;56605;51.516;6.742;2022-10-15T03:19:59;42.63;;;25.15;;
31284;SDS011;56605;51.516;6.742;2022-10-15T03:22:24;50.63;;;26.80;;
31284;SDS011;56605;51.516;6.742;2022-10-15T03:24:49;43.35;;;26.05;;
31284;SDS011;56605;51.516;6.742;2022-10-15T03:27:15;47.88;;;26.75;;
31284;SDS011;56605;51.516;6.742;2022-10-15T03:29:40;51.75;;;28.20;;
31284;SDS011;56605;51.516;6.742;2022-10-15T03:32:05;46.45;;;26.40;;
31284;SDS011;56605;51.516;6.742;2022-10-15T03:34:31;43.67;;;25.90;;
31284;SDS011;56605;51.516;6.742;2022-10-15T03:36:56;48.53;;;26.95;;
31284;SDS011;56605;51.516;6.742;2022-10-15T03:39:21;42.72;;;24.63;;
31284;SDS011;56605;51.516;6.742;2022-10-15T03:41:47;44.70;;;26.00;;
31284;SDS011;56605;51.516;6.742;2022-10-15T03:44:12;51.70;;;27.30;;
31284;SDS011;56605;51.516;6.742;2022-10-15T03:46:37;48.13;;;26.40;;
31284;SDS011;56605;51.516;6.742;2022-10-15T03:49:03;45.58;;;25.52;;
31284;SDS011;56605;51.516;6.742;2022-10-15T03:51:28;46.40;;;25.02;;
31284;SDS011;56605;51.516;6.742;2022-10-15T03:53:53;40.15;;;23.83;;
31284;SDS011;56605;51.516;6.742;2022-10-15T03:56:19;37.22;;;22.33;;
31284;SDS011;56605;51.516;6.742;2022-10-15T03:58:45;38.53;;;22.88;;
31284;SDS011;56605;51.516;6.742;2022-10-15T04:01:11;35.55;;;21.17;;
31284;SDS011;56605;51.516;6.742;2022-10-15T04:03:39;36.85;;;21.30;;
31284;SDS011;56605;51.516;6.742;2022-10-15T04:06:05;31.90;;;19.63;;
31284;SDS011;56605;51.516;6.742;2022-10-15T04:08:31;34.53;;;21.10;;
31284;SDS011;56605;51.516;6.742;2022-10-15T04:10:56;31.17;;;19.73;;
31284;SDS011;56605;51.516;6.742;2022-10-15T04:13:23;31.17;;;18.08;;
31284;SDS011;56605;51.516;6.742;2022-10-15T04:15:49;32.50;;;18.95;;
31284;SDS011;56605;51.516;6.742;2022-10-15T04:18:14;27.92;;;17.85;;
31284;SDS011;56605;51.516;6.742;2022-10-15T04:20:39;28.05;;;17.83;;
31284;SDS011;56605;51.516;6.742;2022-10-15T04:23:06;28.73;;;17.73;;
31284;SDS011;56605;51.516;6.742;2022-10-15T04:25:32;26.50;;;16.85;;
31284;SDS011;56605;51.516;6.742;2022-10-15T04:27:57;28.80;;;16.98;;
31284;SDS011;56605;51.516;6.742;2022-10-15T04:30:23;24.58;;;15.93;;
31284;SDS011;56605;51.516;6.742;2022-10-15T04:32:50;23.25;;;15.05;;
31284;SDS011;56605;51.516;6.742;2022-10-15T04:35:16;27.90;;;15.50;;
31284;SDS011;56605;51.516;6.742;2022-10-15T04:37:41;26.75;;;14.00;;
31284;SDS011;56605;51.516;6.742;2022-10-15T04:40:07;24.77;;;14.77;;
31284;SDS011;56605;51.516;6.742;2022-10-15T04:42:33;27.27;;;16.73;;
31284;SDS011;56605;51.516;6.742;2022-10-15T04:44:58;34.38;;;18.67;;
31284;SDS011;56605;51.516;6.742;2022-10-15T04:47:23;32.72;;;18.65;;
31284;SDS011;56605;51.516;6.742;2022-10-15T04:49:48;29.13;;;16.80;;
31284;SDS011;56605;51.516;6.742;2022-10-15T04:52:14;29.13;;;17.73;;
31284;SDS011;56605;51.516;6.742;2022-10-15T04:54:39;25.65;;;17.10;;
31284;SDS011;56605;51.516;6.742;2022-10-15T04:57:04;26.58;;;15.65;;
31284;SDS011;56605;51.516;6.742;2022-10-15T04:59:30;29.23;;;15.48;;
31284;SDS011;56605;51.516;6.742;2022-10-15T05:01:55;36.80;;;16.70;;
31284;SDS011;56605;51.516;6.742;2022-10-15T05:04:21;26.75;;;15.52;;
31284;SDS011;56605;51.516;6.742;2022-10-15T05:06:46;28.88;;;16.08;;
31284;SDS011;56605;51.516;6.742;2022-10-15T05:09:11;31.90;;;16.85;;
31284;SDS011;56605;51.516;6.742;2022-10-15T05:11:37;23.47;;;15.93;;
31284;SDS011;56605;51.516;6.742;2022-10-15T05:14:02;23.23;;;15.18;;
31284;SDS011;56605;51.516;6.742;2022-10-15T05:16:29;25.38;;;15.32;;
31284;SDS011;56605;51.516;6.742;2022-10-15T05:18:59;27.45;;;14.95;;
31284;SDS011;56605;51.516;6.742;2022-10-15T05:21:26;28.92;;;15.23;;
31284;SDS011;56605;51.516;6.742;2022-10-15T05:23:52;22.42;;;15.38;;
31284;SDS011;56605;51.516;6.742;2022-10-15T05:26:19;25.77;;;16.17;;
31284;SDS011;56605;51.516;6.742;2022-10-15T05:28:46;31.02;;;16.83;;
31284;SDS011;56605;51.516;6.742;2022-10-15T05:31:13;27.63;;;15.55;;
31284;SDS011;56605;51.516;6.742;2022-10-15T05:33:41;28.15;;;17.13;;
31284;SDS011;56605;51.516;6.742;2022-10-15T05:36:07;33.20;;;16.60;;
31284;SDS011;56605;51.516;6.742;2022-10-15T05:38:39;32.88;;;17.20;;
31284;SDS011;56605;51.516;6.742;2022-10-15T05:41:05;32.53;;;17.15;;
31284;SDS011;56605;51.516;6.742;2022-10-15T05:43:30;30.05;;;16.60;;
31284;SDS011;56605;51.516;6.742;2022-10-15T05:45:56;41.38;;;19.05;;
31284;SDS011;56605;51.516;6.742;2022-10-15T05:48:22;33.65;;;18.52;;
31284;SDS011;56605;51.516;6.742;2022-10-15T05:50:48;37.33;;;19.45;;
31284;SDS011;56605;51.516;6.742;2022-10-15T05:53:13;43.28;;;20.73;;
31284;SDS011;56605;51.516;6.742;2022-10-15T05:55:38;41.97;;;19.70;;
31284;SDS011;56605;51.516;6.742;2022-10-15T05:58:04;42.90;;;19.58;;
31284;SDS011;56605;51.516;6.742;2022-10-15T06:00:30;43.58;;;19.73;;
31284;SDS011;56605;51.516;6.742;2022-10-15T06:02:56;41.20;;;19.35;;
31284;SDS011;56605;51.516;6.742;2022-10-15T06:05:21;35.03;;;18.98;;
31284;SDS011;56605;51.516;6.742;2022-10-15T06:07:47;36.85;;;19.48;;
31284;SDS011;56605;51.516;6.742;2022-10-15T06:10:13;39.40;;;19.38;;
31284;SDS011;56605;51.516;6.742;2022-10-15T06:12:38;45.50;;;18.35;;
31284;SDS011;56605;51.516;6.742;2022-10-15T06:15:04;35.15;;;19.00;;
31284;SDS011;56605;51.516;6.742;2022-10-15T06:17:30;34.15;;;18.15;;
31284;SDS011;56605;51.516;6.742;2022-10-15T06:19:55;32.58;;;17.80;;
31284;SDS011;56605;51.516;6.742;2022-10-15T06:22:21;48.15;;;16.38;;
31284;SDS011;56605;51.516;6.742;2022-10-15T06:24:46;37.58;;;18.42;;
31284;SDS011;56605;51.516;6.742;2022-10-15T06:27:11;25.88;;;14.93;;
31284;SDS011;56605;51.516;6.742;2022-10-15T06:29:37;30.33;;;16.70;;
31284;SDS011;56605;51.516;6.742;2022-10-15T06:32:03;35.10;;;17.25;;
31284;SDS011;56605;51.516;6.742;2022-10-15T06:34:29;43.65;;;17.50;;
31284;SDS011;56605;51.516;6.742;2022-10-15T06:36:54;35.95;;;18.48;;
31284;SDS011;56605;51.516;6.742;2022-10-15T06:39:19;30.20;;;14.77;;
31284;SDS011;56605;51.516;6.742;2022-10-15T06:41:45;37.80;;;17.17;;
31284;SDS011;56605;51.516;6.742;2022-10-15T06:44:10;34.00;;;17.70;;
31284;SDS011;56605;51.516;6.742;2022-10-15T06:46:35;42.63;;;17.55;;
31284;SDS011;56605;51.516;6.742;2022-10-15T06:49:01;37.40;;;17.70;;
31284;SDS011;56605;51.516;6.742;2022-10-15T06:51:27;38.42;;;18.27;;
31284;SDS011;56605;51.516;6.742;2022-10-15T06:53:52;40.92;;;19.65;;
31284;SDS011;56605;51.516;6.742;2022-10-15T06:56:18;51.72;;;19.75;;
31284;SDS011;56605;51.516;6.742;2022-10-15T06:58:44;45.42;;;21.02;;
31284;SDS011;56605;51.516;6.742;2022-10-15T07:01:09;36.15;;;19.02;;
31284;SDS011;56605;51.516;6.742;2022-10-15T07:03:35;36.60;;;18.25;;
31284;SDS011;56605;51.516;6.742;2022-10-15T07:06:03;43.47;;;18.63;;
31284;SDS011;56605;51.516;6.742;2022-10-15T07:08:30;37.35;;;16.90;;
31284;SDS011;56605;51.516;6.742;2022-10-15T07:10:55;42.60;;;17.40;;
31284;SDS011;56605;51.516;6.742;2022-10-15T07:13:21;49.70;;;17.67;;
31284;SDS011;56605;51.516;6.742;2022-10-15T07:15:46;34.80;;;17.77;;
31284;SDS011;56605;51.516;6.742;2022-10-15T07:18:13;40.83;;;18.30;;
31284;SDS011;56605;51.516;6.742;2022-10-15T07:20:39;44.45;;;20.52;;
31284;SDS011;56605;51.516;6.742;2022-10-15T07:23:04;40.15;;;19.45;;
31284;SDS011;56605;51.516;6.742;2022-10-15T07:25:29;50.10;;;25.65;;
31284;SDS011;56605;51.516;6.742;2022-10-15T07:27:55;54.63;;;27.05;;
31284;SDS011;56605;51.516;6.742;2022-10-15T07:30:22;49.88;;;24.55;;
31284;SDS011;56605;51.516;6.742;2022-10-15T07:32:51;44.05;;;21.92;;
31284;SDS011;56605;51.516;6.742;2022-10-15T07:35:16;42.25;;;21.52;;
31284;SDS011;56605;51.516;6.742;2022-10-15T07:37:41;39.13;;;22.25;;
31284;SDS011;56605;51.516;6.742;2022-10-15T07:40:07;33.45;;;16.63;;
31284;SDS011;56605;51.516;6.742;2022-10-15T07:42:32;29.73;;;15.85;;
31284;SDS011;56605;51.516;6.742;2022-10-15T07:44:58;33.70;;;18.90;;
31284;SDS011;56605;51.516;6.742;2022-10-15T07:47:23;39.88;;;21.85;;
31284;SDS011;56605;51.516;6.742;2022-10-15T07:49:48;32.30;;;18.42;;
31284;SDS011;56605;51.516;6.742;2022-10-15T07:52:14;31.13;;;17.30;;
31284;SDS011;56605;51.516;6.742;2022-10-15T07:54:39;34.10;;;19.35;;
31284;SDS011;56605;51.516;6.742;2022-10-15T07:57:04;33.83;;;18.77;;
31284;SDS011;56605;51.516;6.742;2022-10-15T07:59:31;35.45;;;18.45;;
31284;SDS011;56605;51.516;6.742;2022-10-15T08:01:56;30.48;;;18.58;;
31284;SDS011;56605;51.516;6.742;2022-10-15T08:04:22;37.13;;;18.73;;
31284;SDS011;56605;51.516;6.742;2022-10-15T08:06:47;33.95;;;17.33;;
31284;SDS011;56605;51.516;6.742;2022-10-15T08:09:13;31.90;;;17.67;;
31284;SDS011;56605;51.516;6.742;2022-10-15T08:11:38;29.08;;;15.55;;
31284;SDS011;56605;51.516;6.742;2022-10-15T08:14:04;26.88;;;15.65;;
31284;SDS011;56605;51.516;6.742;2022-10-15T08:16:29;29.45;;;14.50;;
31284;SDS011;56605;51.516;6.742;2022-10-15T08:18:56;31.98;;;15.02;;
31284;SDS011;56605;51.516;6.742;2022-10-15T08:21:22;30.33;;;15.27;;
31284;SDS011;56605;51.516;6.742;2022-10-15T08:23:47;23.73;;;14.20;;
31284;SDS011;56605;51.516;6.742;2022-10-15T08:26:12;22.17;;;13.23;;
31284;SDS011;56605;51.516;6.742;2022-10-15T08:28:38;25.88;;;14.25;;
31284;SDS011;56605;51.516;6.742;2022-10-15T08:31:04;27.73;;;15.35;;
31284;SDS011;56605;51.516;6.742;2022-10-15T08:33:30;26.90;;;14.55;;
31284;SDS011;56605;51.516;6.742;2022-10-15T08:35:56;23.23;;;13.98;;
31284;SDS011;56605;51.516;6.742;2022-10-15T08:38:22;22.85;;;12.68;;
31284;SDS011;56605;51.516;6.742;2022-10-15T08:40:48;23.42;;;12.95;;
31284;SDS011;56605;51.516;6.742;2022-10-15T08:43:27;22.08;;;13.52;;
31284;SDS011;56605;51.516;6.742;2022-10-15T08:45:58;25.60;;;14.40;;
31284;SDS011;56605;51.516;6.742;2022-10-15T08:48:34;23.58;;;13.02;;
31284;SDS011;56605;51.516;6.742;2022-10-15T08:51:13;22.35;;;12.75;;
31284;SDS011;56605;51.516;6.742;2022-10-15T08:53:43;22.20;;;11.88;;
31284;SDS011;56605;51.516;6.742;2022-10-15T08:56:14;18.85;;;11.20;;
31284;SDS011;56605;51.516;6.742;2022-10-15T09:01:30;16.80;;;10.05;;
31284;SDS011;56605;51.516;6.742;2022-10-15T09:04:05;13.85;;;8.68;;
31284;SDS011;56605;51.516;6.742;2022-10-15T09:06:49;16.40;;;9.23;;
31284;SDS011;56605;51.516;6.742;2022-10-15T09:09:27;18.02;;;7.00;;
31284;SDS011;56605;51.516;6.742;2022-10-15T09:15:03;11.07;;;6.18;;
31284;SDS011;56605;51.516;6.742;2022-10-15T09:17:34;9.20;;;5.57;;
31284;SDS011;56605;51.516;6.742;2022-10-15T09:20:02;11.02;;;6.40;;
31284;SDS011;56605;51.516;6.742;2022-10-15T09:22:30;9.35;;;4.90;;
31284;SDS011;56605;51.516;6.742;2022-10-15T09:24:57;11.95;;;5.07;;
31284;SDS011;56605;51.516;6.742;2022-10-15T09:27:33;9.20;;;4.32;;
31284;SDS011;56605;51.516;6.742;2022-10-15T09:30:09;8.13;;;4.90;;
31284;SDS011;56605;51.516;6.742;2022-10-15T09:32:47;6.30;;;3.92;;
31284;SDS011;56605;51.516;6.742;2022-10-15T09:35:21;5.03;;;3.45;;
31284;SDS011;56605;51.516;6.742;2022-10-15T09:37:52;8.35;;;3.60;;
31284;SDS011;56605;51.516;6.742;2022-10-15T09:43:30;4.65;;;2.60;;
31284;SDS011;56605;51.516;6.742;2022-10-15T09:46:00;4.25;;;2.53;;
31284;SDS011;56605;51.516;6.742;2022-10-15T09:48:35;2.00;;;1.50;;
31284;SDS011;56605;51.516;6.742;2022-10-15T09:51:29;2.42;;;1.65;;
31284;SDS011;56605;51.516;6.742;2022-10-15T09:56:57;2.33;;;1.45;;
31284;SDS011;56605;51.516;6.742;2022-10-15T09:59:23;2.92;;;1.65;;
31284;SDS011;56605;51.516;6.742;2022-10-15T10:04:32;1.83;;;1.23;;
31284;SDS011;56605;51.516;6.742;2022-10-15T10:07:05;2.50;;;1.25;;
31284;SDS011;56605;51.516;6.742;2022-10-15T10:09:32;2.22;;;1.10;;
31284;SDS011;56605;51.516;6.742;2022-10-15T10:12:03;2.13;;;1.50;;
31284;SDS011;56605;51.516;6.742;2022-10-15T10:14:32;3.60;;;1.52;;
31284;SDS011;56605;51.516;6.742;2022-10-15T10:17:23;1.95;;;1.52;;
31284;SDS011;56605;51.516;6.742;2022-10-15T10:27:46;1.45;;;1.00;;
31284;SDS011;56605;51.516;6.742;2022-10-15T10:30:12;2.10;;;1.05;;
31284;SDS011;56605;51.516;6.742;2022-10-15T10:32:38;1.88;;;1.08;;
31284;SDS011;56605;51.516;6.742;2022-10-15T10:35:03;1.02;;;0.93;;
31284;SDS011;56605;51.516;6.742;2022-10-15T10:37:39;1.20;;;0.75;;
31284;SDS011;56605;51.516;6.742;2022-10-15T10:40:06;1.15;;;0.60;;
31284;SDS011;56605;51.516;6.742;2022-10-15T10:42:46;1.00;;;0.60;;
31284;SDS011;56605;51.516;6.742;2022-10-15T10:45:14;1.20;;;0.80;;
31284;SDS011;56605;51.516;6.742;2022-10-15T10:47:42;1.13;;;0.77;;
31284;SDS011;56605;51.516;6.742;2022-10-15T10:50:24;2.67;;;0.80;;
31284;SDS011;56605;51.516;6.742;2022-10-15T10:52:55;2.42;;;1.10;;
31284;SDS011;56605;51.516;6.742;2022-10-15T10:55:22;3.42;;;1.25;;
31284;SDS011;56605;51.516;6.742;2022-10-15T10:57:54;3.67;;;1.30;;
31284;SDS011;56605;51.516;6.742;2022-10-15T11:02:55;2.10;;;1.48;;
31284;SDS011;56605;51.516;6.742;2022-10-15T11:05:27;1.77;;;1.30;;
31284;SDS011;56605;51.516;6.742;2022-10-15T11:10:43;2.92;;;1.77;;
31284;SDS011;56605;51.516;6.742;2022-10-15T11:15:55;5.60;;;2.97;;
31284;SDS011;56605;51.516;6.742;2022-10-15T11:22:00;4.47;;;2.45;;
31284;SDS011;56605;51.516;6.742;2022-10-15T11:24:24;4.47;;;3.08;;
31284;SDS011;56605;51.516;6.742;2022-10-15T11:30:00;8.07;;;2.88;;
31284;SDS011;56605;51.516;6.742;2022-10-15T11:46:06;3.63;;;1.92;;
31284;SDS011;56605;51.516;6.742;2022-10-15T11:57:36;3.55;;;3.22;;
31284;SDS011;56605;51.516;6.742;2022-10-15T12:02:47;4.75;;;3.35;;
31284;SDS011;56605;51.516;6.742;2022-10-15T12:07:51;13.38;;;6.65;;
31284;SDS011;56605;51.516;6.742;2022-10-15T12:13:09;9.98;;;5.85;;
31284;SDS011;56605;51.516;6.742;2022-10-15T12:16:11;10.30;;;4.45;;
31284;SDS011;56605;51.516;6.742;2022-10-15T12:19:09;9.23;;;5.57;;
31284;SDS011;56605;51.516;6.742;2022-10-15T12:27:27;10.05;;;5.20;;
31284;SDS011;56605;51.516;6.742;2022-10-15T12:32:34;10.00;;;5.18;;
31284;SDS011;56605;51.516;6.742;2022-10-15T12:35:03;10.68;;;5.95;;
31284;SDS011;56605;51.516;6.742;2022-10-15T12:37:31;11.50;;;4.43;;
31284;SDS011;56605;51.516;6.742;2022-10-15T12:40:04;14.98;;;6.15;;
31284;SDS011;56605;51.516;6.742;2022-10-15T12:42:51;15.32;;;7.50;;
31284;SDS011;56605;51.516;6.742;2022-10-15T12:45:21;8.15;;;4.68;;
31284;SDS011;56605;51.516;6.742;2022-10-15T12:47:50;10.13;;;5.03;;
31284;SDS011;56605;51.516;6.742;2022-10-15T12:55:26;9.98;;;3.55;;
31284;SDS011;56605;51.516;6.742;2022-10-15T13:00:32;16.70;;;4.82;;
31284;SDS011;56605;51.516;6.742;2022-10-15T13:03:16;12.27;;;5.38;;
31284;SDS011;56605;51.516;6.742;2022-10-15T13:05:47;9.90;;;4.78;;
31284;SDS011;56605;51.516;6.742;2022-10-15T13:08:20;9.23;;;3.88;;
31284;SDS011;56605;51.516;6.742;2022-10-15T13:10:49;14.27;;;3.95;;
31284;SDS011;56605;51.516;6.742;2022-10-15T13:13:18;13.82;;;4.85;;
31284;SDS011;56605;51.516;6.742;2022-10-15T13:16:06;10.75;;;4.20;;
31284;SDS011;56605;51.516;6.742;2022-10-15T13:18:33;12.48;;;4.50;;
31284;SDS011;56605;51.516;6.742;2022-10-15T13:21:00;12.30;;;5.70;;
31284;SDS011;56605;51.516;6.742;2022-10-15T13:23:27;5.60;;;3.95;;
31284;SDS011;56605;51.516;6.742;2022-10-15T13:28:46;8.90;;;4.82;;
31284;SDS011;56605;51.516;6.742;2022-10-15T13:33:43;8.32;;;3.47;;
31284;SDS011;56605;51.516;6.742;2022-10-15T13:36:15;6.28;;;2.85;;
31284;SDS011;56605;51.516;6.742;2022-10-15T13:38:50;5.05;;;1.92;;
31284;SDS011;56605;51.516;6.742;2022-10-15T13:41:22;7.38;;;2.30;;
31284;SDS011;56605;51.516;6.742;2022-10-15T13:43:53;3.67;;;2.38;;
31284;SDS011;56605;51.516;6.742;2022-10-15T13:46:23;11.23;;;3.35;;
31284;SDS011;56605;51.516;6.742;2022-10-15T13:48:49;3.90;;;2.17;;
31284;SDS011;56605;51.516;6.742;2022-10-15T13:51:21;2.03;;;1.67;;
31284;SDS011;56605;51.516;6.742;2022-10-15T13:53:46;2.50;;;1.00;;
31284;SDS011;56605;51.516;6.742;2022-10-15T13:59:15;5.38;;;1.70;;
31284;SDS011;56605;51.516;6.742;2022-10-15T14:01:56;3.13;;;1.23;;
31284;SDS011;56605;51.516;6.742;2022-10-15T14:04:25;4.65;;;1.17;;
31284;SDS011;56605;51.516;6.742;2022-10-15T14:06:54;2.90;;;1.13;;
31284;SDS011;56605;51.516;6.742;2022-10-15T14:09:44;2.88;;;1.00;;
31284;SDS011;56605;51.516;6.742;2022-10-15T14:12:11;2.65;;;1.05;;
31284;SDS011;56605;51.516;6.742;2022-10-15T14:14:55;3.10;;;1.23;;
31284;SDS011;56605;51.516;6.742;2022-10-15T14:17:44;3.65;;;2.00;;
31284;SDS011;56605;51.516;6.742;2022-10-15T14:20:16;5.53;;;1.77;;
31284;SDS011;56605;51.516;6.742;2022-10-15T14:22:47;4.32;;;1.30;;
31284;SDS011;56605;51.516;6.742;2022-10-15T14:25:13;11.43;;;2.42;;
31284;SDS011;56605;51.516;6.742;2022-10-15T14:27:46;5.82;;;1.58;;
31284;SDS011;56605;51.516;6.742;2022-10-15T14:30:12;5.38;;;1.90;;
31284;SDS011;56605;51.516;6.742;2022-10-15T14:38:03;4.07;;;1.27;;
31284;SDS011;56605;51.516;6.742;2022-10-15T14:40:39;4.70;;;1.35;;
31284;SDS011;56605;51.516;6.742;2022-10-15T14:43:05;4.80;;;1.40;;
31284;SDS011;56605;51.516;6.742;2022-10-15T14:45:41;5.50;;;2.40;;
31284;SDS011;56605;51.516;6.742;2022-10-15T14:48:30;5.93;;;2.38;;
31284;SDS011;56605;51.516;6.742;2022-10-15T14:51:00;7.50;;;2.17;;
31284;SDS011;56605;51.516;6.742;2022-10-15T14:53:30;5.00;;;2.70;;
31284;SDS011;56605;51.516;6.742;2022-10-15T14:56:21;7.45;;;3.17;;
31284;SDS011;56605;51.516;6.742;2022-10-15T14:58:50;3.80;;;2.20;;
31284;SDS011;56605;51.516;6.742;2022-10-15T15:01:20;6.85;;;2.13;;
31284;SDS011;56605;51.516;6.742;2022-10-15T15:03:50;7.18;;;2.00;;
31284;SDS011;56605;51.516;6.742;2022-10-15T15:06:17;5.90;;;2.70;;
31284;SDS011;56605;51.516;6.742;2022-10-15T15:08:42;8.65;;;2.20;;
31284;SDS011;56605;51.516;6.742;2022-10-15T15:11:09;2.08;;;1.60;;
31284;SDS011;56605;51.516;6.742;2022-10-15T15:13:42;3.38;;;2.13;;
31284;SDS011;56605;51.516;6.742;2022-10-15T15:16:10;3.65;;;1.15;;
31284;SDS011;56605;51.516;6.742;2022-10-15T15:18:37;3.10;;;1.40;;
31284;SDS011;56605;51.516;6.742;2022-10-15T15:21:04;2.38;;;1.15;;
31284;SDS011;56605;51.516;6.742;2022-10-15T15:23:31;4.68;;;1.60;;
31284;SDS011;56605;51.516;6.742;2022-10-15T15:25:58;2.47;;;1.10;;
31284;SDS011;56605;51.516;6.742;2022-10-15T15:28:24;6.72;;;1.17;;
31284;SDS011;56605;51.516;6.742;2022-10-15T15:30:58;1.35;;;0.90;;
31284;SDS011;56605;51.516;6.742;2022-10-15T15:33:25;2.22;;;1.65;;
31284;SDS011;56605;51.516;6.742;2022-10-15T15:36:02;2.80;;;1.67;;
31284;SDS011;56605;51.516;6.742;2022-10-15T15:38:31;2.38;;;1.40;;
31284;SDS011;56605;51.516;6.742;2022-10-15T15:41:01;4.95;;;1.52;;
31284;SDS011;56605;51.516;6.742;2022-10-15T15:43:37;2.17;;;1.63;;
31284;SDS011;56605;51.516;6.742;2022-10-15T15:46:02;4.32;;;2.00;;
31284;SDS011;56605;51.516;6.742;2022-10-15T15:48:28;1.85;;;1.50;;
31284;SDS011;56605;51.516;6.742;2022-10-15T15:50:55;2.00;;;1.30;;
31284;SDS011;56605;51.516;6.742;2022-10-15T15:53:25;3.47;;;1.77;;
31284;SDS011;56605;51.516;6.742;2022-10-15T15:55:50;4.25;;;1.45;;
31284;SDS011;56605;51.516;6.742;2022-10-15T15:58:15;2.20;;;1.63;;
31284;SDS011;56605;51.516;6.742;2022-10-15T16:00:41;2.50;;;1.50;;
31284;SDS011;56605;51.516;6.742;2022-10-15T16:03:07;3.45;;;1.70;;
31284;SDS011;56605;51.516;6.742;2022-10-15T16:05:38;4.05;;;1.45;;
31284;SDS011;56605;51.516;6.742;2022-10-15T16:08:05;3.35;;;1.60;;
31284;SDS011;56605;51.516;6.742;2022-10-15T16:10:31;2.58;;;1.75;;
31284;SDS011;56605;51.516;6.742;2022-10-15T16:12:57;2.35;;;1.63;;
31284;SDS011;56605;51.516;6.742;2022-10-15T16:15:23;1.75;;;1.20;;
31284;SDS011;56605;51.516;6.742;2022-10-15T16:17:48;1.60;;;1.08;;
31284;SDS011;56605;51.516;6.742;2022-10-15T16:20:14;0.93;;;0.70;;
31284;SDS011;56605;51.516;6.742;2022-10-15T16:22:39;2.55;;;0.70;;
31284;SDS011;56605;51.516;6.742;2022-10-15T16:25:05;0.50;;;0.20;;
31284;SDS011;56605;51.516;6.742;2022-10-15T16:27:30;0.70;;;0.30;;
31284;SDS011;56605;51.516;6.742;2022-10-15T16:29:58;1.40;;;0.60;;
31284;SDS011;56605;51.516;6.742;2022-10-15T16:32:24;1.17;;;0.88;;
31284;SDS011;56605;51.516;6.742;2022-10-15T16:34:49;1.08;;;0.73;;
31284;SDS011;56605;51.516;6.742;2022-10-15T16:37:15;1.42;;;0.85;;
31284;SDS011;56605;51.516;6.742;2022-10-15T16:39:40;1.85;;;1.30;;
31284;SDS011;56605;51.516;6.742;2022-10-15T16:42:06;4.70;;;0.63;;
31284;SDS011;56605;51.516;6.742;2022-10-15T16:44:33;0.63;;;0.50;;
31284;SDS011;56605;51.516;6.742;2022-10-15T16:46:58;1.33;;;0.60;;
31284;SDS011;56605;51.516;6.742;2022-10-15T16:49:24;1.45;;;0.40;;
31284;SDS011;56605;51.516;6.742;2022-10-15T16:51:49;0.75;;;0.60;;